createdAt,value
2019-01-30T00:01:07.705Z,91.60
2019-01-30T00:03:36.140Z,91.70
2019-01-30T00:06:05.385Z,91.70
2019-01-30T00:08:34.313Z,91.70
2019-01-30T00:11:07.556Z,92.10
2019-01-30T00:13:44.039Z,91.70
2019-01-30T00:16:19.641Z,91.70
2019-01-30T00:18:48.096Z,91.70
2019-01-30T00:21:18.628Z,91.70
2019-01-30T00:23:47.002Z,91.90
2019-01-30T00:26:15.556Z,91.80
2019-01-30T00:28:44.318Z,91.90
2019-01-30T00:31:12.925Z,91.80
2019-01-30T00:33:41.318Z,91.90
2019-01-30T00:36:10.550Z,91.80
2019-01-30T00:38:38.964Z,91.70
2019-01-30T00:41:10.327Z,91.70
2019-01-30T00:43:39.396Z,91.80
2019-01-30T00:46:07.996Z,91.70
2019-01-30T00:48:36.942Z,91.70
2019-01-30T00:51:06.077Z,91.80
2019-01-30T00:53:34.524Z,91.70
2019-01-30T00:56:03.225Z,91.70
2019-01-30T00:58:31.721Z,91.70
2019-01-30T01:01:00.196Z,91.70
2019-01-30T01:03:28.889Z,91.70
2019-01-30T01:05:58.511Z,91.70
2019-01-30T01:08:27.541Z,91.60
2019-01-30T01:10:56.073Z,91.60
2019-01-30T01:13:24.500Z,91.60
2019-01-30T01:15:55.488Z,91.60
2019-01-30T01:18:23.858Z,91.60
2019-01-30T01:20:52.291Z,91.60
2019-01-30T01:23:21.379Z,91.60
2019-01-30T01:25:49.894Z,91.60
2019-01-30T01:28:18.419Z,91.50
2019-01-30T01:30:47.099Z,91.50
2019-01-30T01:33:15.703Z,91.40
2019-01-30T01:35:44.128Z,91.50
2019-01-30T01:38:12.659Z,91.50
2019-01-30T01:40:41.311Z,91.70
2019-01-30T01:43:10.375Z,91.80
2019-01-30T01:45:38.907Z,91.50
2019-01-30T01:48:07.397Z,92.70
2019-01-30T01:50:36.235Z,93.50
2019-01-30T01:53:04.706Z,94.70
2019-01-30T01:55:33.136Z,95.20
2019-01-30T01:58:01.923Z,95.30
2019-01-30T02:00:35.667Z,95.30
2019-01-30T02:03:00.875Z,95.30
2019-01-30T02:05:29.271Z,94.90
2019-01-30T02:07:57.665Z,94.70
2019-01-30T02:10:26.310Z,94.90
2019-01-30T02:12:54.666Z,94.50
2019-01-30T02:15:23.825Z,94.30
2019-01-30T02:17:52.682Z,99.90
2019-01-30T02:20:23.740Z,99.90
2019-01-30T02:22:52.312Z,99.90
2019-01-30T02:25:20.887Z,99.90
2019-01-30T02:27:49.953Z,99.90
2019-01-30T02:30:24.235Z,99.90
2019-01-30T02:32:52.854Z,99.90
2019-01-30T02:35:22.359Z,99.90
2019-01-30T02:37:50.875Z,99.90
2019-01-30T02:40:22.987Z,99.90
2019-01-30T02:42:52.163Z,99.90
2019-01-30T02:45:25.659Z,99.90
2019-01-30T02:47:54.183Z,99.90
2019-01-30T02:50:22.725Z,99.90
2019-01-30T02:52:51.639Z,99.90
2019-01-30T02:55:20.776Z,99.90
2019-01-30T02:57:49.282Z,99.90
2019-01-30T03:00:24.176Z,99.90
2019-01-30T03:02:52.816Z,99.90
2019-01-30T03:05:21.866Z,99.90
2019-01-30T03:07:50.497Z,99.90
2019-01-30T03:10:19.451Z,99.90
2019-01-30T03:12:48.082Z,99.90
2019-01-30T03:15:17.406Z,99.90
2019-01-30T03:17:46.060Z,99.90
2019-01-30T03:20:17.918Z,99.90
2019-01-30T03:22:46.920Z,91.90
2019-01-30T03:25:15.757Z,91.70
2019-01-30T03:27:44.647Z,91.70
2019-01-30T03:30:25.941Z,91.70
2019-01-30T03:32:54.424Z,91.70
2019-01-30T03:35:22.964Z,91.80
2019-01-30T03:37:51.416Z,91.70
2019-01-30T03:40:20.121Z,91.80
2019-01-30T03:42:48.703Z,91.80
2019-01-30T03:45:19.433Z,91.80
2019-01-30T03:47:48.241Z,91.80
2019-01-30T03:50:17.218Z,91.70
2019-01-30T03:52:46.300Z,91.80
2019-01-30T03:55:18.075Z,91.80
2019-01-30T03:57:46.559Z,91.80
2019-01-30T04:00:17.573Z,91.80
2019-01-30T04:02:46.347Z,91.80
2019-01-30T04:05:15.324Z,91.70
2019-01-30T04:07:43.837Z,92.10
2019-01-30T04:10:15.322Z,91.80
2019-01-30T04:12:43.951Z,91.80
2019-01-30T04:15:13.146Z,91.70
2019-01-30T04:17:41.509Z,91.70
2019-01-30T04:20:11.458Z,91.70
2019-01-30T04:22:40.428Z,91.70
2019-01-30T04:25:09.470Z,91.70
2019-01-30T04:27:38.256Z,91.60
2019-01-30T04:30:11.369Z,91.60
2019-01-30T04:32:39.889Z,91.60
2019-01-30T04:35:08.464Z,91.70
2019-01-30T04:37:36.976Z,91.80
2019-01-30T04:40:07.708Z,91.80
2019-01-30T04:42:36.141Z,91.80
2019-01-30T04:45:06.535Z,91.80
2019-01-30T04:47:34.893Z,91.80
2019-01-30T04:50:03.956Z,91.80
2019-01-30T04:52:32.313Z,91.80
2019-01-30T04:55:00.765Z,91.80
2019-01-30T04:57:29.067Z,91.80
2019-01-30T04:59:57.522Z,91.90
2019-01-30T05:02:26.162Z,91.90
2019-01-30T05:04:55.185Z,91.90
2019-01-30T05:07:24.976Z,91.90
2019-01-30T05:09:53.435Z,91.90
2019-01-30T05:12:22.213Z,91.80
2019-01-30T05:14:50.685Z,91.80
2019-01-30T05:17:19.331Z,91.80
2019-01-30T05:19:48.202Z,91.90
2019-01-30T05:22:16.668Z,91.90
2019-01-30T05:24:45.226Z,92.00
2019-01-30T05:27:13.847Z,92.10
2019-01-30T05:29:42.761Z,92.00
2019-01-30T05:32:11.767Z,92.00
2019-01-30T05:34:40.729Z,91.90
2019-01-30T05:37:09.416Z,91.90
2019-01-30T05:39:38.098Z,91.90
2019-01-30T05:42:07.149Z,91.90
2019-01-30T05:44:35.845Z,91.90
2019-01-30T05:47:04.623Z,91.80
2019-01-30T05:49:33.083Z,91.90
2019-01-30T05:52:01.950Z,91.80
2019-01-30T05:54:30.982Z,91.80
2019-01-30T05:56:59.704Z,91.80
2019-01-30T05:59:28.965Z,91.80
2019-01-30T06:01:57.326Z,91.80
2019-01-30T06:04:25.872Z,91.80
2019-01-30T06:06:54.929Z,91.80
2019-01-30T06:09:23.856Z,91.90
2019-01-30T06:11:52.633Z,91.90
2019-01-30T06:14:21.749Z,91.80
2019-01-30T06:16:50.592Z,91.80
2019-01-30T06:19:20.656Z,92.00
2019-01-30T06:21:50.105Z,91.90
2019-01-30T06:24:18.669Z,92.00
2019-01-30T06:26:47.733Z,91.90
2019-01-30T06:29:16.445Z,91.80
2019-01-30T06:31:45.106Z,91.80
2019-01-30T06:34:13.418Z,91.70
2019-01-30T06:36:42.629Z,91.70
2019-01-30T06:39:11.161Z,91.70
2019-01-30T06:41:40.041Z,91.70
2019-01-30T06:44:08.498Z,91.70
2019-01-30T06:46:37.456Z,91.80
2019-01-30T06:49:05.749Z,91.70
2019-01-30T06:51:34.522Z,91.60
2019-01-30T06:54:03.065Z,91.60
2019-01-30T06:56:31.657Z,91.60
2019-01-30T06:59:00.338Z,91.60
2019-01-30T07:01:28.868Z,91.60
2019-01-30T07:03:57.465Z,91.40
2019-01-30T07:06:26.165Z,91.20
2019-01-30T07:08:55.036Z,90.90
2019-01-30T07:11:24.105Z,90.90
2019-01-30T07:13:52.789Z,90.80
2019-01-30T07:16:21.645Z,90.90
2019-01-30T07:18:50.676Z,90.90
2019-01-30T07:21:19.230Z,91.50
2019-01-30T07:23:48.025Z,91.00
2019-01-30T07:26:17.347Z,91.00
2019-01-30T07:28:46.877Z,91.00
2019-01-30T07:31:15.978Z,91.00
2019-01-30T07:33:44.996Z,91.00
2019-01-30T07:36:13.761Z,91.00
2019-01-30T07:38:43.128Z,91.00
2019-01-30T07:41:12.085Z,91.00
2019-01-30T07:43:40.840Z,91.00
2019-01-30T07:46:10.012Z,91.30
2019-01-30T07:48:38.674Z,90.90
2019-01-30T07:51:07.416Z,90.90
2019-01-30T07:53:36.036Z,90.90
2019-01-30T07:56:05.037Z,90.80
2019-01-30T07:58:33.744Z,90.80
2019-01-30T08:01:02.257Z,90.70
2019-01-30T08:03:31.149Z,90.70
2019-01-30T08:06:00.036Z,90.70
2019-01-30T08:08:28.676Z,90.60
2019-01-30T08:10:57.133Z,90.70
2019-01-30T08:13:25.696Z,90.60
2019-01-30T08:15:54.096Z,90.90
2019-01-30T08:18:23.046Z,90.40
2019-01-30T08:20:51.441Z,90.30
2019-01-30T08:23:20.161Z,90.30
2019-01-30T08:25:48.920Z,90.20
2019-01-30T08:28:17.778Z,90.20
2019-01-30T08:30:46.144Z,90.10
2019-01-30T08:33:14.869Z,90.00
2019-01-30T08:35:43.717Z,90.00
2019-01-30T08:38:12.092Z,90.00
2019-01-30T08:40:40.721Z,89.70
2019-01-30T08:43:10.339Z,89.60
2019-01-30T08:45:39.518Z,89.60
2019-01-30T08:48:08.051Z,89.40
2019-01-30T08:50:36.542Z,89.30
2019-01-30T08:53:05.026Z,89.20
2019-01-30T08:55:33.610Z,95.80
2019-01-30T08:58:02.080Z,96.20
2019-01-30T09:00:30.543Z,96.10
2019-01-30T09:02:59.047Z,96.30
2019-01-30T09:05:28.661Z,96.20
2019-01-30T09:07:57.295Z,96.70
2019-01-30T09:10:26.355Z,90.60
2019-01-30T09:12:54.861Z,99.90
2019-01-30T09:15:25.401Z,99.90
2019-01-30T09:17:53.951Z,99.90
2019-01-30T09:20:23.197Z,99.90
2019-01-30T09:22:52.081Z,99.90
2019-01-30T09:25:32.286Z,99.90
2019-01-30T09:28:03.845Z,99.90
2019-01-30T09:30:37.168Z,99.90
2019-01-30T09:33:10.342Z,86.20
2019-01-30T09:35:42.158Z,86.10
2019-01-30T09:38:10.714Z,85.50
2019-01-30T09:40:39.396Z,85.30
2019-01-30T09:43:08.396Z,85.00
2019-01-30T09:45:37.024Z,84.70
2019-01-30T09:48:06.706Z,84.00
2019-01-30T09:50:35.356Z,83.50
2019-01-30T09:53:04.649Z,83.20
2019-01-30T09:55:33.143Z,82.90
2019-01-30T09:58:01.594Z,82.80
2019-01-30T10:00:32.682Z,82.90
2019-01-30T10:03:01.233Z,82.40
2019-01-30T10:05:29.853Z,82.50
2019-01-30T10:07:58.254Z,82.80
2019-01-30T10:10:29.280Z,82.50
2019-01-30T10:12:57.913Z,81.90
2019-01-30T10:15:32.221Z,81.10
2019-01-30T10:18:00.737Z,81.30
2019-01-30T10:20:33.980Z,80.00
2019-01-30T10:23:02.493Z,80.70
2019-01-30T10:25:31.028Z,80.20
2019-01-30T10:27:59.521Z,79.80
2019-01-30T10:30:30.404Z,79.50
2019-01-30T10:32:59.112Z,78.90
2019-01-30T10:35:28.059Z,78.80
2019-01-30T10:37:56.658Z,78.90
2019-01-30T10:40:25.710Z,78.60
2019-01-30T10:42:57.501Z,78.00
2019-01-30T10:45:26.019Z,77.40
2019-01-30T10:47:54.673Z,78.10
2019-01-30T10:50:27.302Z,78.60
2019-01-30T10:52:55.937Z,78.50
2019-01-30T10:55:26.965Z,77.70
2019-01-30T10:57:57.458Z,77.50
2019-01-30T11:00:32.170Z,77.40
2019-01-30T11:03:00.733Z,77.00
2019-01-30T11:05:29.365Z,77.20
2019-01-30T11:07:57.981Z,77.60
2019-01-30T11:10:26.752Z,78.00
2019-01-30T11:12:55.540Z,77.80
2019-01-30T11:15:25.093Z,77.80
2019-01-30T11:17:53.498Z,75.50
2019-01-30T11:20:22.255Z,76.10
2019-01-30T11:22:53.465Z,77.00
2019-01-30T11:25:27.908Z,77.80
2019-01-30T11:27:56.952Z,78.10
2019-01-30T11:30:27.895Z,78.10
2019-01-30T11:32:56.980Z,77.80
2019-01-30T11:35:25.573Z,77.50
2019-01-30T11:37:54.262Z,77.70
2019-01-30T11:40:23.236Z,77.20
2019-01-30T11:42:52.157Z,76.90
2019-01-30T11:45:26.428Z,76.60
2019-01-30T11:47:55.016Z,75.90
2019-01-30T11:50:23.422Z,75.40
2019-01-30T11:52:51.987Z,75.20
2019-01-30T11:55:21.190Z,75.10
2019-01-30T11:57:51.387Z,75.00
2019-01-30T12:00:26.879Z,74.50
2019-01-30T12:02:55.567Z,75.10
2019-01-30T12:05:23.999Z,75.10
2019-01-30T12:07:52.477Z,75.40
2019-01-30T12:10:21.778Z,75.20
2019-01-30T12:12:50.325Z,74.80
2019-01-30T12:15:19.781Z,74.00
2019-01-30T12:17:48.332Z,74.20
2019-01-30T12:20:16.996Z,71.20
2019-01-30T12:22:45.909Z,71.80
2019-01-30T12:25:16.465Z,71.70
2019-01-30T12:27:46.088Z,71.50
2019-01-30T12:30:20.165Z,72.20
2019-01-30T12:32:48.681Z,72.40
2019-01-30T12:35:17.535Z,72.10
2019-01-30T12:37:46.100Z,72.00
2019-01-30T12:40:16.673Z,72.40
2019-01-30T12:42:45.625Z,72.10
2019-01-30T12:45:20.381Z,71.80
2019-01-30T12:47:48.809Z,99.90
2019-01-30T12:50:17.849Z,99.90
2019-01-30T12:52:48.797Z,99.30
2019-01-30T12:55:17.557Z,99.50
2019-01-30T12:57:46.025Z,99.90
2019-01-30T13:00:19.716Z,98.60
2019-01-30T13:02:48.449Z,98.20
2019-01-30T13:05:18.318Z,99.00
2019-01-30T13:07:48.032Z,99.10
2019-01-30T13:10:16.678Z,99.90
2019-01-30T13:12:45.210Z,99.90
2019-01-30T13:15:15.523Z,99.90
2019-01-30T13:17:46.567Z,97.80
2019-01-30T13:20:18.881Z,97.80
2019-01-30T13:22:47.387Z,97.80
2019-01-30T13:25:18.817Z,97.90
2019-01-30T13:27:47.192Z,97.80
2019-01-30T13:30:18.912Z,71.40
2019-01-30T13:32:47.208Z,72.30
2019-01-30T13:35:15.853Z,72.50
2019-01-30T13:37:44.250Z,72.50
2019-01-30T13:40:16.510Z,72.70
2019-01-30T13:42:44.907Z,73.20
2019-01-30T13:45:14.265Z,73.30
2019-01-30T13:47:43.794Z,73.70
2019-01-30T13:50:15.249Z,74.50
2019-01-30T13:52:43.720Z,75.10
2019-01-30T13:55:13.327Z,75.10
2019-01-30T13:57:41.858Z,75.80
2019-01-30T14:00:38.888Z,76.10
2019-01-30T14:03:07.815Z,76.20
2019-01-30T14:05:36.230Z,76.40
2019-01-30T14:08:06.208Z,77.00
2019-01-30T14:10:35.581Z,77.50
2019-01-30T14:13:04.129Z,77.90
2019-01-30T14:15:33.474Z,78.20
2019-01-30T14:18:01.989Z,78.40
2019-01-30T14:20:30.395Z,78.40
2019-01-30T14:22:59.129Z,78.70
2019-01-30T14:25:28.102Z,78.80
2019-01-30T14:27:57.204Z,79.90
2019-01-30T14:30:31.259Z,79.20
2019-01-30T14:32:59.677Z,79.50
2019-01-30T14:35:30.656Z,79.90
2019-01-30T14:37:59.636Z,80.10
2019-01-30T14:40:28.045Z,80.30
2019-01-30T14:42:56.474Z,80.40
2019-01-30T14:45:25.462Z,80.60
2019-01-30T14:47:54.744Z,80.70
2019-01-30T14:50:24.826Z,80.90
2019-01-30T14:52:53.338Z,81.00
2019-01-30T14:55:21.868Z,81.10
2019-01-30T14:57:51.022Z,81.40
2019-01-30T15:00:22.438Z,81.70
2019-01-30T15:02:51.213Z,82.00
2019-01-30T15:05:22.747Z,82.20
2019-01-30T15:07:51.492Z,82.50
2019-01-30T15:10:20.623Z,82.80
2019-01-30T15:12:49.408Z,82.90
2019-01-30T15:15:22.959Z,83.00
2019-01-30T15:17:51.993Z,83.10
2019-01-30T15:20:26.056Z,83.20
2019-01-30T15:22:55.597Z,83.30
2019-01-30T15:25:24.305Z,83.40
2019-01-30T15:27:52.907Z,83.60
2019-01-30T15:30:52.483Z,83.80
2019-01-30T15:33:21.449Z,84.00
2019-01-30T15:35:50.507Z,84.00
2019-01-30T15:38:20.849Z,84.90
2019-01-30T15:40:50.183Z,84.20
2019-01-30T15:43:19.182Z,84.50
2019-01-30T15:45:49.563Z,84.60
2019-01-30T15:48:23.683Z,84.70
2019-01-30T15:50:53.503Z,85.00
2019-01-30T15:53:24.185Z,85.10
2019-01-30T15:55:54.182Z,85.30
2019-01-30T15:58:22.568Z,85.30
2019-01-30T16:01:01.046Z,85.50
2019-01-30T16:03:30.862Z,85.50
2019-01-30T16:05:59.845Z,85.60
2019-01-30T16:08:29.197Z,85.60
2019-01-30T16:10:59.249Z,85.80
2019-01-30T16:13:28.253Z,85.90
2019-01-30T16:16:00.062Z,86.00
2019-01-30T16:18:29.102Z,86.10
2019-01-30T16:21:00.821Z,86.40
2019-01-30T16:23:30.567Z,86.20
2019-01-30T16:25:59.277Z,86.30
2019-01-30T16:28:27.815Z,86.60
2019-01-30T16:30:56.982Z,86.60
2019-01-30T16:33:30.165Z,86.60
2019-01-30T16:35:59.319Z,86.80
2019-01-30T16:38:27.826Z,87.70
2019-01-30T16:40:56.321Z,87.00
2019-01-30T16:43:24.905Z,87.10
2019-01-30T16:45:53.413Z,87.20
2019-01-30T16:48:22.078Z,87.30
2019-01-30T16:50:50.693Z,87.40
2019-01-30T16:53:20.373Z,87.30
2019-01-30T16:55:48.869Z,87.30
2019-01-30T16:58:17.701Z,87.40
2019-01-30T17:00:46.867Z,87.50
2019-01-30T17:03:16.353Z,87.60
2019-01-30T17:05:45.595Z,87.60
2019-01-30T17:08:14.365Z,87.60
2019-01-30T17:10:43.151Z,87.60
2019-01-30T17:13:12.860Z,87.50
2019-01-30T17:15:41.778Z,87.40
2019-01-30T17:18:16.187Z,87.40
2019-01-30T17:20:44.830Z,87.40
2019-01-30T17:23:13.585Z,87.40
2019-01-30T17:25:42.662Z,87.40
2019-01-30T17:28:12.474Z,87.40
2019-01-30T17:30:54.066Z,87.50
2019-01-30T17:33:23.923Z,88.60
2019-01-30T17:35:52.710Z,88.80
2019-01-30T17:38:21.867Z,88.80
2019-01-30T17:40:50.374Z,88.80
2019-01-30T17:43:18.965Z,88.70
2019-01-30T17:45:49.175Z,88.60
2019-01-30T17:48:18.393Z,88.70
2019-01-30T17:50:47.096Z,88.60
2019-01-30T17:53:16.245Z,88.50
2019-01-30T17:55:46.355Z,88.50
2019-01-30T17:58:15.848Z,88.40
2019-01-30T18:01:04.489Z,88.60
2019-01-30T18:03:33.652Z,88.70
2019-01-30T18:06:02.514Z,88.70
2019-01-30T18:08:31.308Z,88.70
2019-01-30T18:11:00.178Z,88.80
2019-01-30T18:13:28.758Z,88.70
2019-01-30T18:15:57.232Z,88.50
2019-01-30T18:18:25.638Z,88.20
2019-01-30T18:20:55.057Z,88.10
2019-01-30T18:23:23.961Z,88.10
2019-01-30T18:25:53.012Z,87.90
2019-01-30T18:28:21.945Z,87.70
2019-01-30T18:30:51.371Z,87.70
2019-01-30T18:33:20.196Z,87.50
2019-01-30T18:35:48.921Z,87.40
2019-01-30T18:38:18.077Z,87.20
2019-01-30T18:40:46.817Z,87.20
2019-01-30T18:43:21.020Z,87.00
2019-01-30T18:45:50.653Z,86.80
2019-01-30T18:48:20.444Z,86.70
2019-01-30T18:50:50.606Z,86.50
2019-01-30T18:53:20.216Z,86.30
2019-01-30T18:55:49.070Z,86.20
2019-01-30T18:58:18.462Z,86.10
2019-01-30T19:00:47.750Z,86.10
2019-01-30T19:03:18.948Z,86.10
2019-01-30T19:05:47.761Z,86.20
2019-01-30T19:08:17.580Z,86.20
2019-01-30T19:10:46.032Z,86.00
2019-01-30T19:13:14.621Z,85.90
2019-01-30T19:15:43.126Z,85.70
2019-01-30T19:18:13.741Z,85.70
2019-01-30T19:20:43.961Z,85.40
2019-01-30T19:23:12.512Z,85.10
2019-01-30T19:25:41.163Z,84.90
2019-01-30T19:28:09.869Z,84.80
2019-01-30T19:30:39.177Z,84.80
2019-01-30T19:33:10.078Z,84.50
2019-01-30T19:35:39.049Z,84.30
2019-01-30T19:38:09.373Z,84.10
2019-01-30T19:40:38.676Z,84.00
2019-01-30T19:43:07.149Z,83.80
2019-01-30T19:45:36.767Z,83.70
2019-01-30T19:48:07.106Z,83.60
2019-01-30T19:50:36.443Z,83.50
2019-01-30T19:53:06.804Z,83.20
2019-01-30T19:55:35.748Z,83.00
2019-01-30T19:58:06.332Z,82.80
2019-01-30T20:00:40.685Z,82.60
2019-01-30T20:03:12.270Z,82.50
2019-01-30T20:05:40.924Z,82.40
2019-01-30T20:08:09.676Z,81.70
2019-01-30T20:10:38.233Z,81.20
2019-01-30T20:13:06.881Z,81.10
2019-01-30T20:15:38.527Z,81.10
2019-01-30T20:18:07.846Z,81.10
2019-01-30T20:20:36.526Z,81.10
2019-01-30T20:23:06.582Z,81.00
2019-01-30T20:25:36.684Z,80.90
2019-01-30T20:28:05.892Z,81.00
2019-01-30T20:30:35.188Z,81.00
2019-01-30T20:33:04.190Z,81.80
2019-01-30T20:35:32.852Z,81.00
2019-01-30T20:38:01.513Z,81.00
2019-01-30T20:40:33.616Z,80.80
2019-01-30T20:43:03.210Z,80.90
2019-01-30T20:45:34.153Z,81.00
2019-01-30T20:48:08.037Z,81.30
2019-01-30T20:50:37.494Z,81.20
2019-01-30T20:53:06.358Z,81.10
2019-01-30T20:55:35.513Z,80.90
2019-01-30T20:58:04.859Z,80.70
2019-01-30T21:00:38.141Z,80.70
2019-01-30T21:03:07.726Z,80.80
2019-01-30T21:05:36.861Z,80.70
2019-01-30T21:08:07.506Z,79.60
2019-01-30T21:10:38.478Z,79.20
2019-01-30T21:13:08.381Z,79.00
2019-01-30T21:15:37.948Z,78.90
2019-01-30T21:18:07.336Z,78.90
2019-01-30T21:20:35.925Z,78.90
2019-01-30T21:23:05.329Z,78.60
2019-01-30T21:25:33.892Z,78.50
2019-01-30T21:28:02.250Z,78.80
2019-01-30T21:30:33.542Z,79.10
2019-01-30T21:33:02.273Z,79.40
2019-01-30T21:35:32.298Z,79.70
2019-01-30T21:38:01.409Z,80.10
2019-01-30T21:40:29.928Z,80.30
2019-01-30T21:42:59.529Z,80.50
2019-01-30T21:45:28.279Z,80.80
2019-01-30T21:47:56.801Z,80.90
2019-01-30T21:50:25.456Z,81.00
2019-01-30T21:52:54.085Z,81.10
2019-01-30T21:55:23.717Z,81.10
2019-01-30T21:57:52.442Z,81.10
2019-01-30T22:00:25.966Z,81.20
2019-01-30T22:02:54.849Z,81.10
2019-01-30T22:05:23.951Z,81.00
2019-01-30T22:08:00.600Z,81.00
2019-01-30T22:10:25.361Z,81.00
2019-01-30T22:12:54.012Z,81.00
2019-01-30T22:15:22.749Z,81.10
2019-01-30T22:17:51.057Z,81.30
2019-01-30T22:20:23.701Z,82.30
2019-01-30T22:22:55.933Z,81.80
2019-01-30T22:25:25.234Z,82.30
2019-01-30T22:27:53.750Z,82.80
2019-01-30T22:30:33.947Z,83.00
2019-01-30T22:33:02.304Z,83.20
2019-01-30T22:35:31.181Z,83.50
2019-01-30T22:37:59.685Z,83.80
2019-01-30T22:40:29.065Z,83.90
2019-01-30T22:42:58.753Z,84.10
2019-01-30T22:45:27.221Z,84.40
2019-01-30T22:47:55.525Z,84.60
2019-01-30T22:50:24.233Z,84.80
2019-01-30T22:52:54.014Z,84.90
2019-01-30T22:55:24.194Z,85.00
2019-01-30T22:57:52.581Z,85.20
2019-01-30T23:00:58.468Z,85.30
2019-01-30T23:03:41.545Z,85.50
2019-01-30T23:06:21.744Z,85.70
2019-01-30T23:09:31.247Z,85.70
2019-01-30T23:12:36.279Z,85.80
2019-01-30T23:15:21.248Z,85.90
2019-01-30T23:18:08.556Z,85.80
2019-01-30T23:20:45.756Z,85.90
2019-01-30T23:23:52.557Z,85.90
2019-01-30T23:26:41.393Z,85.90
2019-01-30T23:29:35.218Z,86.00
2019-01-30T23:32:18.483Z,85.80
2019-01-30T23:35:29.101Z,85.70
2019-01-30T23:38:50.421Z,85.70
2019-01-30T23:41:58.819Z,85.80
2019-01-30T23:44:52.215Z,85.80
2019-01-30T23:48:01.602Z,85.70
2019-01-30T23:50:50.965Z,85.70
2019-01-30T23:53:49.067Z,85.70
2019-01-30T23:56:39.708Z,85.80
2019-01-30T23:59:46.473Z,85.70
